createdAt,value
2023-01-17T00:02:56.265Z,3.7
2023-01-17T00:07:56.175Z,3.8
2023-01-17T00:12:56.197Z,4.0
2023-01-17T00:17:56.092Z,4.1
2023-01-17T00:22:56.091Z,4.3
2023-01-17T00:27:56.115Z,4.4
2023-01-17T00:32:56.097Z,4.5
2023-01-17T00:37:56.108Z,4.4
2023-01-17T00:42:56.195Z,4.1
2023-01-17T00:47:56.967Z,3.7
2023-01-17T00:57:56.206Z,2.9
2023-01-17T01:02:56.211Z,2.7
2023-01-17T01:07:56.209Z,2.5
2023-01-17T01:12:56.188Z,2.3
2023-01-17T01:17:56.202Z,2.2
2023-01-17T01:22:56.205Z,2.2
2023-01-17T01:27:56.205Z,2.2
2023-01-17T01:32:56.227Z,2.2
2023-01-17T01:37:56.203Z,2.2
2023-01-17T01:42:56.205Z,2.2
2023-01-17T01:47:56.210Z,2.3
2023-01-17T01:52:56.274Z,2.3
2023-01-17T01:57:56.219Z,2.3
2023-01-17T02:02:56.225Z,2.3
2023-01-17T02:07:56.228Z,2.3
2023-01-17T02:12:56.231Z,2.4
2023-01-17T02:17:56.231Z,2.4
2023-01-17T02:22:56.234Z,2.4
2023-01-17T02:27:56.237Z,2.5
2023-01-17T02:32:56.241Z,2.5
2023-01-17T02:37:56.249Z,2.5
2023-01-17T02:42:56.244Z,2.6
2023-01-17T02:47:56.247Z,2.7
2023-01-17T02:52:56.262Z,2.7
2023-01-17T02:57:56.246Z,2.8
2023-01-17T03:02:56.256Z,2.8
2023-01-17T03:07:56.262Z,2.9
2023-01-17T03:12:56.255Z,2.9
2023-01-17T03:17:56.260Z,3.0
2023-01-17T03:22:56.264Z,3.0
2023-01-17T03:27:56.269Z,3.0
2023-01-17T03:32:56.275Z,3.0
2023-01-17T03:37:56.273Z,3.0
2023-01-17T03:42:56.293Z,2.9
2023-01-17T03:47:56.278Z,2.9
2023-01-17T03:52:56.278Z,2.8
2023-01-17T03:57:56.278Z,2.7
2023-01-17T04:02:56.338Z,2.7
2023-01-17T04:07:56.288Z,2.7
2023-01-17T04:12:56.288Z,2.6
2023-01-17T04:17:56.292Z,2.6
2023-01-17T04:22:56.299Z,2.5
2023-01-17T04:27:56.297Z,2.5
2023-01-17T04:32:56.296Z,2.5
2023-01-17T04:37:56.306Z,2.5
2023-01-17T04:42:56.300Z,2.5
2023-01-17T04:47:56.302Z,2.6
2023-01-17T04:52:56.314Z,2.6
2023-01-17T04:57:56.312Z,2.6
2023-01-17T05:02:56.361Z,2.7
2023-01-17T05:07:56.318Z,2.7
2023-01-17T05:12:56.335Z,2.6
2023-01-17T05:17:56.323Z,2.6
2023-01-17T05:22:56.346Z,2.5
2023-01-17T05:27:56.324Z,2.4
2023-01-17T05:32:56.331Z,2.4
2023-01-17T05:37:56.328Z,2.4
2023-01-17T05:42:56.331Z,2.4
2023-01-17T05:47:56.361Z,2.5
2023-01-17T05:52:56.351Z,2.5
2023-01-17T05:57:56.345Z,2.5
2023-01-17T06:02:56.414Z,2.4
2023-01-17T06:07:56.344Z,2.4
2023-01-17T06:12:56.341Z,2.3
2023-01-17T06:17:56.342Z,2.2
2023-01-17T06:22:56.362Z,2.2
2023-01-17T06:27:56.347Z,2.2
2023-01-17T06:32:56.391Z,2.2
2023-01-17T06:37:56.350Z,2.1
2023-01-17T06:42:56.354Z,2.1
2023-01-17T06:47:56.357Z,2.1
2023-01-17T06:52:56.360Z,2.1
2023-01-17T06:57:56.359Z,2.1
2023-01-17T07:02:56.368Z,2.1
2023-01-17T07:07:56.369Z,2.0
2023-01-17T07:12:56.364Z,2.0
2023-01-17T07:17:56.370Z,2.0
2023-01-17T07:22:56.387Z,2.0
2023-01-17T07:27:56.377Z,2.0
2023-01-17T07:32:56.413Z,2.0
2023-01-17T07:37:56.380Z,1.9
2023-01-17T07:42:56.384Z,1.9
2023-01-17T07:47:56.399Z,1.9
2023-01-17T07:52:56.431Z,1.8
2023-01-17T07:57:56.389Z,1.8
2023-01-17T08:02:56.389Z,1.8
2023-01-17T08:07:56.396Z,1.8
2023-01-17T08:12:56.391Z,1.8
2023-01-17T08:17:56.414Z,1.8
2023-01-17T08:22:56.401Z,1.9
2023-01-17T08:27:56.413Z,1.8
2023-01-17T08:32:56.408Z,1.8
2023-01-17T08:37:56.430Z,1.8
2023-01-17T08:42:56.415Z,1.8
2023-01-17T08:47:56.407Z,1.8
2023-01-17T08:52:56.413Z,1.8
2023-01-17T08:57:56.416Z,1.9
2023-01-17T09:02:56.422Z,1.9
2023-01-17T09:07:56.420Z,1.9
2023-01-17T09:12:56.430Z,2.0
2023-01-17T09:17:56.427Z,2.0
2023-01-17T09:22:56.428Z,2.0
2023-01-17T09:27:56.430Z,2.0
2023-01-17T09:32:56.428Z,2.0
2023-01-17T09:37:57.308Z,2.1
2023-01-17T09:42:56.444Z,2.1
2023-01-17T09:47:56.435Z,2.1
2023-01-17T09:52:56.441Z,2.2
2023-01-17T09:57:56.482Z,2.3
2023-01-17T10:02:56.711Z,2.5
2023-01-17T10:07:56.456Z,2.6
2023-01-17T10:12:56.456Z,2.7
2023-01-17T10:17:56.463Z,2.9
2023-01-17T10:22:56.465Z,3.0
2023-01-17T10:27:56.481Z,3.1
2023-01-17T10:32:56.491Z,3.3
2023-01-17T10:37:56.473Z,3.4
2023-01-17T10:42:56.475Z,3.5
2023-01-17T10:47:56.487Z,3.6
2023-01-17T10:52:56.502Z,3.7
2023-01-17T10:57:56.481Z,3.9
2023-01-17T11:02:56.467Z,4.0
2023-01-17T11:07:56.396Z,4.1
2023-01-17T11:12:56.400Z,4.2
2023-01-17T11:17:56.410Z,4.3
2023-01-17T11:22:56.409Z,4.5
2023-01-17T11:27:56.414Z,4.6
2023-01-17T11:32:56.415Z,4.7
2023-01-17T11:37:56.417Z,4.8
2023-01-17T11:42:56.433Z,4.9
2023-01-17T11:47:56.420Z,5.1
2023-01-17T11:52:56.552Z,5.2
2023-01-17T11:57:56.571Z,5.3
2023-01-17T12:02:56.532Z,5.4
2023-01-17T12:07:56.528Z,5.5
2023-01-17T12:12:56.543Z,5.5
2023-01-17T12:17:56.532Z,5.6
2023-01-17T12:22:56.544Z,5.6
2023-01-17T12:27:56.544Z,5.5
2023-01-17T12:32:56.559Z,5.6
2023-01-17T12:38:05.023Z,5.7
2023-01-17T12:42:56.561Z,5.8
2023-01-17T12:47:56.569Z,5.9
2023-01-17T12:57:56.557Z,6.0
2023-01-17T13:02:56.629Z,6.1
2023-01-17T13:07:56.569Z,6.1
2023-01-17T13:12:56.565Z,6.1
2023-01-17T13:17:56.576Z,6.1
2023-01-17T13:22:56.573Z,6.1
2023-01-17T13:27:56.579Z,6.1
2023-01-17T13:32:56.579Z,6.1
2023-01-17T13:37:56.582Z,6.2
2023-01-17T13:42:56.583Z,6.1
2023-01-17T13:47:56.587Z,6.1
2023-01-17T13:52:56.598Z,6.1
2023-01-17T13:57:56.636Z,6.1
2023-01-17T14:02:56.639Z,6.0
2023-01-17T14:07:56.721Z,6.0
2023-01-17T14:12:56.644Z,6.0
2023-01-17T14:17:56.609Z,6.0
2023-01-17T14:22:56.661Z,5.9
2023-01-17T14:27:56.644Z,5.9
2023-01-17T14:32:56.618Z,5.8
2023-01-17T14:37:56.661Z,5.7
2023-01-17T14:42:56.615Z,5.6
2023-01-17T14:47:56.621Z,5.5
2023-01-17T14:52:56.530Z,5.4
2023-01-17T14:57:56.653Z,5.3
2023-01-17T15:02:56.752Z,5.3
2023-01-17T15:07:56.626Z,5.2
2023-01-17T15:12:56.583Z,5.2
2023-01-17T15:17:56.657Z,5.1
2023-01-17T15:22:56.527Z,5.0
2023-01-17T15:27:56.640Z,4.9
2023-01-17T15:32:56.635Z,4.8
2023-01-17T15:37:56.643Z,4.7
2023-01-17T15:42:56.543Z,4.6
2023-01-17T15:47:56.544Z,4.4
2023-01-17T15:52:56.555Z,4.3
2023-01-17T15:57:56.549Z,4.1
2023-01-17T16:02:56.661Z,4.0
2023-01-17T16:07:56.549Z,3.9
2023-01-17T16:12:56.552Z,3.7
2023-01-17T16:17:56.661Z,3.5
2023-01-17T16:22:56.668Z,3.3
2023-01-17T16:27:56.660Z,3.1
2023-01-17T16:32:56.660Z,3.0
2023-01-17T16:37:56.647Z,2.8
2023-01-17T16:42:56.659Z,2.7
2023-01-17T16:47:56.656Z,2.6
2023-01-17T16:52:56.657Z,2.5
2023-01-17T16:57:56.661Z,2.4
2023-01-17T17:02:56.708Z,2.3
2023-01-17T17:07:57.056Z,2.2
2023-01-17T17:12:56.667Z,2.0
2023-01-17T17:17:56.675Z,1.9
2023-01-17T17:22:56.668Z,1.8
2023-01-17T17:27:56.666Z,1.7
2023-01-17T17:32:56.666Z,1.6
2023-01-17T17:37:56.669Z,1.5
2023-01-17T17:42:56.729Z,1.4
2023-01-17T17:47:56.683Z,1.4
2023-01-17T17:52:56.679Z,1.3
2023-01-17T17:57:56.686Z,1.2
2023-01-17T18:02:56.692Z,1.1
2023-01-17T18:07:56.774Z,1.0
2023-01-17T18:12:56.696Z,0.9
2023-01-17T18:17:56.687Z,0.8
2023-01-17T18:22:56.684Z,0.8
2023-01-17T18:27:56.685Z,0.7
2023-01-17T18:32:56.690Z,0.6
2023-01-17T18:37:56.716Z,0.5
2023-01-17T18:42:57.114Z,0.5
2023-01-17T18:47:56.934Z,0.4
2023-01-17T18:52:56.946Z,0.4
2023-01-17T18:57:57.023Z,0.3
2023-01-17T19:02:56.700Z,0.3
2023-01-17T19:07:57.014Z,0.2
2023-01-17T19:12:56.810Z,0.2
2023-01-17T19:17:57.110Z,0.2
2023-01-17T19:22:56.720Z,0.1
2023-01-17T19:27:57.223Z,0.1
2023-01-17T19:32:56.719Z,0.0
2023-01-17T19:37:57.242Z,0.0
2023-01-17T19:42:56.715Z,0.0
2023-01-17T19:47:57.122Z,0.0
2023-01-17T19:52:56.723Z,0.0
2023-01-17T19:57:57.091Z,0.0
2023-01-17T20:02:56.821Z,0.0
2023-01-17T20:07:57.047Z,0.0
2023-01-17T20:12:56.738Z,0.0
2023-01-17T20:17:57.203Z,0.0
2023-01-17T20:22:56.735Z,0.0
2023-01-17T20:27:57.103Z,0.0
2023-01-17T20:32:56.740Z,0.0
2023-01-17T20:37:57.036Z,0.0
2023-01-17T20:42:56.742Z,0.0
2023-01-17T20:47:57.081Z,0.0
2023-01-17T20:52:56.750Z,0.0
2023-01-17T20:57:57.110Z,0.0
2023-01-17T21:02:56.894Z,0.0
2023-01-17T21:07:57.128Z,0.0
2023-01-17T21:12:56.760Z,0.1
2023-01-17T21:17:57.139Z,0.1
2023-01-17T21:22:56.770Z,0.1
2023-01-17T21:27:57.071Z,0.1
2023-01-17T21:32:56.767Z,0.2
2023-01-17T21:37:57.115Z,0.2
2023-01-17T21:42:56.774Z,0.2
2023-01-17T21:47:57.084Z,0.2
2023-01-17T21:52:56.779Z,0.2
2023-01-17T21:57:57.194Z,0.2
2023-01-17T22:02:58.872Z,0.2
2023-01-17T22:07:57.050Z,0.2
2023-01-17T22:12:56.796Z,0.2
2023-01-17T22:17:57.060Z,0.2
2023-01-17T22:22:57.254Z,0.2
2023-01-17T22:27:57.058Z,0.2
2023-01-17T22:32:57.127Z,0.2
2023-01-17T22:37:56.820Z,0.2
2023-01-17T22:42:57.227Z,0.2
2023-01-17T22:47:56.806Z,0.1
2023-01-17T22:52:57.236Z,0.1
2023-01-17T22:57:56.815Z,0.1
2023-01-17T23:02:57.290Z,0.1
2023-01-17T23:07:56.816Z,0.0
2023-01-17T23:12:57.201Z,0.0
2023-01-17T23:17:56.825Z,0.0
2023-01-17T23:22:57.146Z,0.0
2023-01-17T23:27:56.845Z,0.0
2023-01-17T23:32:57.128Z,0.0
2023-01-17T23:37:56.832Z,0.0
2023-01-17T23:42:57.178Z,0.0
2023-01-17T23:47:56.830Z,0.0
2023-01-17T23:52:57.153Z,0.0
2023-01-17T23:57:56.844Z,0.0
